Time;durP1;ratioP1;P1;durP2;ratioP2;P2;SDS_P1;SDS_P2;PMS_P1;PMS_P2;Temp;Humidity;BMP_temperature;BMP_pressure;BME280_temperature;BME280_humidity;BME280_pressure;Samples;Min_cycle;Max_cycle;Signal;HPM_P1;HPM_P2
2023/08/09 00:01:33;;;;;;;1.63;0.90;;;;;;;16.95;33.80;94535.53;5055863;28;20266;-83
2023/08/09 00:03:59;;;;;;;2.55;1.20;;;;;;;16.48;37.01;94530.59;5055766;28;20021;-82
2023/08/09 00:06:24;;;;;;;4.13;1.35;;;;;;;16.62;37.88;94536.59;5055468;28;20091;-83
2023/08/09 00:09:08;;;;;;;1.95;1.13;;;;;;;16.53;37.94;94538.38;5055135;28;20354;-88
2023/08/09 00:11:52;;;;;;;2.25;1.05;;;;;;;16.61;34.51;94536.88;5056833;28;20025;-87
2023/08/09 00:14:17;;;;;;;2.58;1.10;;;;;;;16.60;35.12;94527.38;5072129;28;20051;-87
2023/08/09 00:17:02;;;;;;;1.90;0.95;;;;;;;16.67;37.49;94530.41;5055725;28;20041;-88
2023/08/09 00:19:46;;;;;;;1.50;0.93;;;;;;;16.35;37.81;94527.69;5054963;28;20114;-87
2023/08/09 00:25:15;;;;;;;3.83;1.02;;;;;;;16.78;36.13;94521.13;5056546;28;20115;-87
2023/08/09 00:27:40;;;;;;;1.60;1.08;;;;;;;16.44;36.75;94527.75;5055352;28;20029;-87
2023/08/09 00:30:08;;;;;;;2.15;1.02;;;;;;;16.35;36.00;94521.59;5054774;28;20036;-87
2023/08/09 00:32:52;;;;;;;3.63;1.15;;;;;;;16.19;36.92;94518.53;5055582;28;20044;-87
2023/08/09 00:35:18;;;;;;;2.50;1.20;;;;;;;16.27;37.62;94522.34;5055486;28;20059;-87
2023/08/09 00:37:43;;;;;;;1.80;0.85;;;;;;;16.23;38.58;94520.28;5055982;28;20037;-87
2023/08/09 00:40:27;;;;;;;3.20;1.40;;;;;;;16.36;39.45;94523.97;5054738;28;20430;-87
2023/08/09 00:42:53;;;;;;;3.60;1.02;;;;;;;16.46;38.54;94528.22;5071651;28;20465;-88
2023/08/09 00:45:18;;;;;;;2.90;1.25;;;;;;;16.55;37.03;94533.56;5055345;28;20120;-88
2023/08/09 00:47:44;;;;;;;2.10;1.30;;;;;;;16.30;37.66;94533.09;5071840;28;20358;-88
2023/08/09 00:50:09;;;;;;;3.63;1.20;;;;;;;16.18;39.77;94532.84;5037601;28;20036;-87
2023/08/09 00:52:36;;;;;;;3.72;1.42;;;;;;;16.30;39.70;94529.66;5054148;28;20032;-88
2023/08/09 00:55:20;;;;;;;3.42;1.00;;;;;;;16.43;35.99;94538.66;5042742;28;20029;-87
2023/08/09 00:57:47;;;;;;;1.40;0.88;;;;;;;16.25;39.38;94536.63;5037478;28;20055;-88
2023/08/09 01:00:13;;;;;;;2.45;1.20;;;;;;;16.24;38.20;94535.06;5037010;28;20354;-87
2023/08/09 01:02:57;;;;;;;2.78;1.40;;;;;;;16.44;37.03;94540.97;5038787;28;20025;-88
2023/08/09 01:06:02;;;;;;;2.42;1.10;;;;;;;16.67;36.11;94538.34;5037037;28;20088;-87
2023/08/09 01:09:03;;;;;;;1.80;1.10;;;;;;;16.68;36.54;94537.25;5008327;28;20489;-88
2023/08/09 01:11:54;;;;;;;2.03;1.23;;;;;;;16.76;35.03;94533.88;5032768;28;20056;-88
2023/08/09 01:14:22;;;;;;;1.45;0.90;;;;;;;16.80;34.91;94526.91;5037171;28;20037;-88
2023/08/09 01:16:49;;;;;;;2.65;1.10;;;;;;;16.81;35.60;94527.66;5071883;28;20036;-88
2023/08/09 01:19:27;;;;;;;6.88;1.40;;;;;;;16.70;38.21;94537.72;5074814;28;20165;-88
2023/08/09 01:21:55;;;;;;;3.42;1.48;;;;;;;16.28;39.56;94531.81;5049871;28;20409;-88
2023/08/09 01:24:26;;;;;;;3.15;1.30;;;;;;;16.42;40.43;94531.75;5066003;28;20029;-88
2023/08/09 01:26:52;;;;;;;2.17;1.20;;;;;;;16.23;40.77;94530.06;5052967;28;20450;-88
2023/08/09 01:29:37;;;;;;;3.35;1.10;;;;;;;15.93;39.43;94533.09;5062869;28;20038;-88
2023/08/09 01:32:02;;;;;;;2.92;1.20;;;;;;;15.97;39.40;94534.06;5042818;28;20028;-88
2023/08/09 01:34:28;;;;;;;3.20;1.25;;;;;;;16.00;41.25;94527.41;5057641;28;20076;-88
2023/08/09 01:37:17;;;;;;;3.03;1.10;;;;;;;16.02;40.44;94519.97;5057028;28;20041;-87
2023/08/09 01:40:08;;;;;;;2.88;1.50;;;;;;;16.32;37.33;94519.56;5057782;28;20072;-87
2023/08/09 01:42:52;;;;;;;7.13;1.05;;;;;;;16.21;38.69;94513.75;5056353;28;20031;-88
2023/08/09 01:45:17;;;;;;;2.63;1.30;;;;;;;16.36;39.60;94518.66;5057472;28;20041;-88
2023/08/09 01:47:43;;;;;;;2.38;1.40;;;;;;;16.35;39.87;94519.75;5056801;28;20032;-88
2023/08/09 01:50:26;;;;;;;2.65;1.25;;;;;;;16.19;39.24;94510.63;5056068;28;20040;-88
2023/08/09 01:52:55;;;;;;;;;;;;;;;15.86;39.99;94519.47;5056951;28;20032;-88
2023/08/09 01:55:24;;;;;;;2.40;1.20;;;;;;;16.00;39.04;94511.56;5045775;28;19919;-88
2023/08/09 01:57:49;;;;;;;3.72;1.27;;;;;;;16.22;39.51;94517.94;5036448;28;20033;-88
2023/08/09 02:00:19;;;;;;;4.65;1.38;;;;;;;16.31;38.81;94510.88;5041381;28;20098;-87
2023/08/09 02:02:45;;;;;;;2.83;1.48;;;;;;;16.45;37.86;94518.72;5035200;28;20346;-88
2023/08/09 02:07:54;;;;;;;2.45;1.35;;;;;;;16.76;37.54;94502.13;5033697;28;20494;-87
2023/08/09 02:10:20;;;;;;;2.03;1.13;;;;;;;16.47;38.91;94498.06;5034893;28;20138;-88
2023/08/09 02:13:04;;;;;;;3.17;1.30;;;;;;;16.30;40.40;94490.81;5033659;28;20095;-88
2023/08/09 02:15:30;;;;;;;4.57;1.55;;;;;;;16.30;39.31;94495.28;5033716;28;20033;-87
2023/08/09 02:17:58;;;;;;;2.80;1.27;;;;;;;16.44;41.51;94485.44;5034901;28;20043;-88
2023/08/09 02:20:42;;;;;;;4.15;1.40;;;;;;;16.38;38.21;94465.50;5032821;28;20052;-88
2023/08/09 02:23:08;;;;;;;1.90;1.30;;;;;;;16.48;39.98;94467.88;5034697;28;20354;-87
2023/08/09 02:25:34;;;;;;;3.03;1.23;;;;;;;16.68;40.43;94477.19;5033608;28;20060;-87
2023/08/09 02:27:59;;;;;;;3.25;1.30;;;;;;;16.71;41.04;94480.31;5034674;28;20167;-88
2023/08/09 02:30:25;;;;;;;2.78;1.33;;;;;;;16.21;41.20;94464.31;5034290;28;20091;-87
2023/08/09 02:32:50;;;;;;;4.90;1.30;;;;;;;15.84;41.03;94460.88;5033441;28;20053;-82
2023/08/09 02:35:16;;;;;;;2.25;1.20;;;;;;;15.93;41.73;94460.97;5033968;28;20036;-82
2023/08/09 02:37:41;;;;;;;3.53;1.42;;;;;;;16.22;41.77;94457.94;5032765;28;20332;-82
2023/08/09 02:40:09;;;;;;;5.28;1.55;;;;;;;16.46;42.43;94464.75;5032377;28;20052;-82
2023/08/09 02:42:34;;;;;;;3.63;1.20;;;;;;;16.02;40.83;94464.47;5032946;28;20045;-83
2023/08/09 02:45:00;;;;;;;2.50;1.42;;;;;;;15.66;42.72;94467.84;5049238;28;20078;-83
2023/08/09 02:47:44;;;;;;;2.60;1.00;;;;;;;15.67;42.52;94469.41;5034176;28;20041;-82
2023/08/09 02:50:28;;;;;;;3.20;1.38;;;;;;;15.77;43.38;94457.84;5032142;28;20037;-82
2023/08/09 02:52:53;;;;;;;5.30;1.27;;;;;;;15.49;42.01;94458.69;5033944;28;20349;-82
2023/08/09 02:55:19;;;;;;;4.57;1.25;;;;;;;15.63;42.43;94452.59;5033993;28;20041;-82
2023/08/09 02:57:44;;;;;;;2.63;1.30;;;;;;;15.58;41.38;94458.78;5034020;28;20038;-83
2023/08/09 03:00:11;;;;;;;3.75;1.63;;;;;;;15.63;42.88;94456.00;5015979;28;20045;-83
2023/08/09 03:02:36;;;;;;;2.95;1.30;;;;;;;15.64;44.04;94470.00;5033999;28;20041;-82
2023/08/09 03:05:03;;;;;;;4.30;1.73;;;;;;;15.61;42.71;94463.47;5032401;28;20031;-82
2023/08/09 03:07:29;;;;;;;4.93;1.58;;;;;;;15.23;42.91;94469.75;5051942;28;20041;-82
2023/08/09 03:09:54;;;;;;;4.75;1.10;;;;;;;15.34;41.57;94475.59;5053472;28;20465;-83
2023/08/09 03:12:20;;;;;;;3.83;1.60;;;;;;;15.49;43.85;94489.59;5053756;28;20513;-82
2023/08/09 03:15:04;;;;;;;2.72;1.20;;;;;;;15.39;43.93;94503.78;5052581;28;20029;-82
2023/08/09 03:17:30;;;;;;;2.30;1.23;;;;;;;15.31;43.65;94510.53;5057876;28;20113;-82
2023/08/09 03:20:15;;;;;;;4.35;1.60;;;;;;;15.73;41.17;94517.63;5057317;28;20449;-82
2023/08/09 03:22:48;;;;;;;3.90;1.20;;;;;;;15.85;40.63;94528.47;5054705;28;20037;-82
2023/08/09 03:25:14;;;;;;;4.05;1.20;;;;;;;15.90;40.75;94533.69;5058849;28;20032;-83
2023/08/09 03:27:40;;;;;;;2.78;1.38;;;;;;;15.97;40.84;94544.63;5063836;28;20029;-82
2023/08/09 03:30:08;;;;;;;2.88;1.27;;;;;;;16.10;40.68;94555.47;5058401;28;20055;-82
2023/08/09 03:35:39;;;;;;;4.80;1.48;;;;;;;16.54;39.10;94575.13;5068237;28;20419;-81
2023/08/09 03:40:48;;;;;;;3.40;1.45;;;;;;;16.61;39.20;94566.78;5067416;28;20462;-82
2023/08/09 03:45:57;;;;;;;4.63;1.40;;;;;;;16.74;39.93;94564.38;5059677;28;20056;-82
2023/08/09 03:48:23;;;;;;;3.10;1.52;;;;;;;16.78;40.49;94576.69;5059696;28;20029;-82
2023/08/09 03:50:48;;;;;;;3.65;1.48;;;;;;;16.79;40.92;94574.81;5059753;28;20041;-82
2023/08/09 03:53:14;;;;;;;4.38;1.70;;;;;;;16.81;41.26;94577.94;5041814;28;20195;-82
2023/08/09 03:55:39;;;;;;;4.80;1.50;;;;;;;16.82;41.25;94577.66;5058485;28;20403;-82
2023/08/09 03:58:05;;;;;;;3.63;1.65;;;;;;;16.71;41.96;94565.75;5059695;28;20111;-82
2023/08/09 04:00:32;;;;;;;5.55;1.48;;;;;;;16.69;42.18;94562.63;5057710;28;20408;-82
2023/08/09 04:02:57;;;;;;;2.20;1.30;;;;;;;16.44;42.72;94561.38;5059330;28;20028;-82
2023/08/09 04:08:07;;;;;;;3.05;1.50;;;;;;;15.79;45.02;94545.53;5058407;28;20039;-82
2023/08/09 04:10:52;;;;;;;2.53;1.27;;;;;;;15.61;46.82;94541.91;5058186;28;20036;-83
2023/08/09 04:13:17;;;;;;;3.40;1.13;;;;;;;15.34;47.45;94531.03;5059359;28;20040;-82
2023/08/09 04:15:43;;;;;;;3.38;1.38;;;;;;;15.33;47.99;94518.91;5058240;28;20037;-82
2023/08/09 04:20:52;;;;;;;5.60;1.30;;;;;;;14.09;50.26;94520.94;5058426;28;20099;-83
2023/08/09 04:23:36;;;;;;;2.20;1.10;;;;;;;13.94;52.22;94525.34;5059457;28;20037;-82
2023/08/09 04:29:04;;;;;;;3.95;1.65;;;;;;;14.15;51.22;94535.59;5058700;28;20338;-82
2023/08/09 04:31:49;;;;;;;4.75;1.50;;;;;;;13.95;53.19;94524.28;5059150;28;20037;-82
2023/08/09 04:34:14;;;;;;;2.80;1.15;;;;;;;13.70;54.68;94523.53;5058721;28;20047;-83
2023/08/09 04:36:40;;;;;;;2.67;1.40;;;;;;;13.99;54.02;94527.91;5057496;28;20041;-83
2023/08/09 04:39:09;;;;;;;4.38;1.40;;;;;;;14.19;54.12;94522.66;5058535;28;20040;-82
2023/08/09 04:41:35;;;;;;;4.30;1.35;;;;;;;14.43;52.97;94525.19;5058957;28;20040;-82
2023/08/09 04:44:00;;;;;;;3.60;1.40;;;;;;;14.48;57.74;94529.59;5058821;28;20350;-82
2023/08/09 04:46:26;;;;;;;4.25;1.38;;;;;;;14.56;58.43;94521.81;5057729;28;20048;-82
2023/08/09 04:49:12;;;;;;;3.60;1.27;;;;;;;14.54;57.37;94518.69;5057191;28;20087;-83
2023/08/09 04:51:37;;;;;;;2.72;1.38;;;;;;;14.53;59.61;94525.03;5058722;28;20037;-82
2023/08/09 04:54:02;;;;;;;3.72;1.48;;;;;;;14.55;60.89;94522.88;5057040;28;20028;-82
2023/08/09 04:56:28;;;;;;;7.88;1.60;;;;;;;14.37;59.81;94521.84;5057084;28;20033;-82
2023/08/09 04:58:53;;;;;;;4.35;1.30;;;;;;;14.48;59.47;94522.44;5057271;28;20037;-82
2023/08/09 05:01:19;;;;;;;3.05;1.35;;;;;;;14.66;62.49;94533.28;5057318;28;20037;-82
2023/08/09 05:03:44;;;;;;;2.97;1.33;;;;;;;14.64;63.05;94532.78;5058273;28;20513;-82
2023/08/09 05:06:10;;;;;;;5.30;1.40;;;;;;;14.90;64.74;94537.66;5057276;28;20029;-82
2023/08/09 05:08:35;;;;;;;2.28;1.20;;;;;;;14.91;62.57;94545.28;5056736;28;20311;-82
2023/08/09 05:11:19;;;;;;;2.60;1.20;;;;;;;15.08;62.36;94551.84;5039963;28;20025;-82
2023/08/09 05:13:45;;;;;;;3.13;1.58;;;;;;;15.27;62.42;94554.41;5058068;28;20465;-83
2023/08/09 05:16:48;;;;;;;4.85;1.40;;;;;;;15.61;58.38;94552.47;5040226;28;20033;-83
2023/08/09 05:19:13;;;;;;;3.80;1.60;;;;;;;15.86;58.50;94547.78;5057724;28;20308;-83
2023/08/09 05:21:38;;;;;;;3.75;1.52;;;;;;;16.10;60.43;94552.84;5056744;28;20040;-83
2023/08/09 05:24:23;;;;;;;4.80;1.48;;;;;;;16.18;61.98;94546.06;5056578;28;20037;-83
2023/08/09 05:35:19;;;;;;;3.78;1.33;;;;;;;17.09;65.74;94540.78;5056618;28;20040;-82
2023/08/09 05:37:45;;;;;;;2.80;1.40;;;;;;;17.27;60.74;94554.88;5056083;28;20029;-82
2023/08/09 05:40:12;;;;;;;2.25;1.17;;;;;;;17.40;54.83;94555.84;5057347;28;20032;-82
2023/08/09 05:42:38;;;;;;;2.42;1.40;;;;;;;17.61;61.62;94552.66;5056125;28;20021;-85
2023/08/09 05:45:04;;;;;;;5.05;1.13;;;;;;;17.75;73.86;94553.34;5074171;28;20415;-85
2023/08/09 05:47:30;;;;;;;4.60;1.63;;;;;;;17.56;69.07;94553.59;5076160;28;20107;-85
2023/08/09 05:56:01;;;;;;;1.90;1.10;;;;;;;17.32;71.21;94560.03;5062956;28;20071;-85
2023/08/09 05:58:26;;;;;;;4.03;1.38;;;;;;;17.35;86.62;94561.28;5045936;28;20060;-85
2023/08/09 06:00:52;;;;;;;3.92;1.20;;;;;;;17.27;89.91;94567.31;5036272;28;20065;-85
2023/08/09 06:03:17;;;;;;;2.70;1.50;;;;;;;17.55;87.84;94575.88;5054809;28;20022;-85
2023/08/09 06:05:43;;;;;;;2.47;1.60;;;;;;;17.54;86.29;94576.97;5039141;28;20091;-85
2023/08/09 06:08:08;;;;;;;4.68;1.85;;;;;;;17.42;58.62;94569.56;5035987;28;20037;-86
2023/08/09 06:10:53;;;;;;;3.90;1.50;;;;;;;17.58;59.99;94575.25;5035724;28;20040;-85
2023/08/09 06:13:18;;;;;;;4.80;1.50;;;;;;;17.70;61.04;94582.59;5036081;28;20352;-85
2023/08/09 06:15:43;;;;;;;3.00;1.30;;;;;;;17.63;63.77;94576.97;5038016;28;20041;-84
2023/08/09 06:18:28;;;;;;;3.60;1.40;;;;;;;17.35;79.58;94577.19;5052508;28;20021;-85
2023/08/09 06:20:56;;;;;;;2.92;1.40;;;;;;;17.57;73.54;94584.28;5036877;28;20025;-85
2023/08/09 06:23:21;;;;;;;4.15;1.45;;;;;;;17.78;73.04;94587.16;5035760;28;20028;-85
2023/08/09 06:26:05;;;;;;;1.80;1.13;;;;;;;17.98;71.58;94594.84;5036824;28;20021;-85
2023/08/09 06:28:49;;;;;;;4.30;1.42;;;;;;;17.98;75.50;94600.91;5037036;28;20110;-85
2023/08/09 06:31:33;;;;;;;4.82;1.40;;;;;;;17.74;88.24;94610.06;5036876;28;20342;-85
2023/08/09 06:33:58;;;;;;;4.50;1.70;;;;;;;17.81;74.04;94614.94;5049766;28;20033;-84
2023/08/09 06:36:24;;;;;;;5.47;1.70;;;;;;;17.93;66.59;94617.78;5056182;28;20058;-85
2023/08/09 06:38:49;;;;;;;7.13;1.60;;;;;;;18.25;75.68;94616.94;5035310;28;20462;-84
2023/08/09 06:41:15;;;;;;;4.57;1.38;;;;;;;18.53;96.57;94620.06;5035508;28;20026;-85
2023/08/09 06:43:40;;;;;;;3.20;1.50;;;;;;;18.55;84.95;94617.13;5036638;28;20021;-85
2023/08/09 06:46:05;;;;;;;3.35;1.45;;;;;;;18.87;79.22;94618.53;5035703;28;20442;-85
2023/08/09 06:48:32;;;;;;;3.17;1.60;;;;;;;19.07;75.05;94616.31;5036965;28;20032;-85
2023/08/09 06:50:58;;;;;;;3.17;1.38;;;;;;;18.82;82.24;94615.25;5063510;28;20437;-85
2023/08/09 06:53:23;;;;;;;4.28;1.50;;;;;;;18.84;89.36;94613.06;5026957;28;20021;-86
2023/08/09 06:56:07;;;;;;;8.15;1.38;;;;;;;19.02;100.00;94604.00;5055440;28;20123;-86
2023/08/09 07:01:17;;;;;;;3.05;1.50;;;;;;;19.28;99.79;94605.81;5056485;28;20083;-86
2023/08/09 07:03:43;;;;;;;4.20;1.33;;;;;;;19.52;86.37;94614.34;5055552;28;20025;-85
2023/08/09 07:06:09;;;;;;;3.28;1.50;;;;;;;19.52;72.55;94604.50;5055307;28;20078;-85
2023/08/09 07:08:34;;;;;;;6.00;1.80;;;;;;;19.83;67.90;94602.63;5054818;28;20040;-85
2023/08/09 07:14:03;;;;;;;1.77;1.20;;;;;;;20.10;63.90;94598.78;5042952;28;20119;-86
2023/08/09 07:16:28;;;;;;;2.83;1.50;;;;;;;19.93;61.86;94597.00;5051962;28;20025;-86
2023/08/09 07:21:40;;;;;;;7.38;1.55;;;;;;;19.81;60.88;94596.88;5035198;28;20028;-85
2023/08/09 07:24:06;;;;;;;2.67;1.38;;;;;;;19.90;60.61;94600.28;5034993;28;20028;-85
2023/08/09 07:26:53;;;;;;;3.13;1.38;;;;;;;20.38;63.57;94589.53;5036196;28;20026;-86
2023/08/09 07:29:19;;;;;;;2.60;1.30;;;;;;;20.42;69.17;94598.41;5051177;28;20022;-85
2023/08/09 07:31:44;;;;;;;4.20;1.63;;;;;;;20.49;64.64;94598.69;5035966;28;20036;-86
2023/08/09 07:34:10;;;;;;;5.10;1.40;;;;;;;19.50;79.82;94590.72;5018742;28;20030;-85
2023/08/09 07:36:54;;;;;;;3.35;1.63;;;;;;;19.48;85.61;94591.06;5036185;28;20083;-85
2023/08/09 07:39:22;;;;;;;2.60;1.40;;;;;;;19.97;70.86;94584.59;5035768;28;20079;-85
2023/08/09 07:41:47;;;;;;;3.83;1.30;;;;;;;20.24;64.68;94582.56;5035372;28;20025;-91
2023/08/09 07:46:56;;;;;;;3.08;1.33;;;;;;;20.14;71.50;94594.38;5038069;28;20905;-91
2023/08/09 07:49:22;;;;;;;4.22;1.55;;;;;;;20.26;73.68;94595.56;5054672;28;20044;-90
2023/08/09 07:51:47;;;;;;;6.00;1.60;;;;;;;20.19;86.26;94594.16;5034797;28;20037;-90
2023/08/09 07:54:12;;;;;;;2.40;1.40;;;;;;;20.58;76.25;94587.97;5018673;28;20040;-91
2023/08/09 07:56:57;;;;;;;3.53;1.40;;;;;;;20.63;78.68;94596.53;5036173;28;20450;-91
2023/08/09 08:04:50;;;;;;;4.22;1.42;;;;;;;20.52;84.58;94602.59;5039534;28;20473;-91
2023/08/09 08:09:59;;;;;;;2.40;1.27;;;;;;;20.98;92.82;94598.16;5039065;28;20036;-91
2023/08/09 08:12:26;;;;;;;4.15;1.70;;;;;;;21.21;85.49;94583.66;5038711;28;20037;-92
2023/08/09 08:14:52;;;;;;;4.43;1.38;;;;;;;21.38;82.69;94596.78;5022229;28;20507;-90
2023/08/09 08:17:17;;;;;;;4.07;1.50;;;;;;;21.32;85.86;94590.91;5021791;28;20116;-91
2023/08/09 08:19:43;;;;;;;3.10;1.42;;;;;;;21.33;86.46;94586.34;5021677;28;20033;-90
2023/08/09 08:22:09;;;;;;;3.45;1.52;;;;;;;21.34;86.14;94579.91;5038341;28;20113;-92
2023/08/09 08:27:40;;;;;;;4.30;1.75;;;;;;;21.43;80.46;94579.81;5039091;28;20039;-91
2023/08/09 08:30:08;;;;;;;4.07;1.48;;;;;;;21.65;63.77;94577.81;5038065;28;20041;-92
2023/08/09 08:32:34;;;;;;;3.42;1.50;;;;;;;21.85;62.42;94579.63;5021774;28;20029;-92
2023/08/09 08:35:02;;;;;;;3.20;1.50;;;;;;;21.94;61.53;94587.53;5021542;28;20119;-93
2023/08/09 08:37:27;;;;;;;3.60;1.80;;;;;;;22.23;62.03;94584.91;5038075;28;20033;-91
2023/08/09 08:39:53;;;;;;;6.13;1.50;;;;;;;21.75;61.04;94585.41;5037451;28;20435;-91
2023/08/09 08:42:18;;;;;;;12.48;1.80;;;;;;;21.60;67.73;94584.94;5021318;28;20056;-88
2023/08/09 08:44:44;;;;;;;3.30;1.40;;;;;;;21.79;69.30;94593.53;5038936;28;20079;-90
2023/08/09 08:47:10;;;;;;;4.93;1.77;;;;;;;21.69;59.84;94589.41;5039013;28;20466;-89
2023/08/09 08:49:57;;;;;;;3.67;1.70;;;;;;;21.57;65.38;94598.13;5037356;28;20090;-89
2023/08/09 08:52:25;;;;;;;3.03;1.55;;;;;;;21.94;64.68;94603.53;5038591;28;20037;-88
2023/08/09 08:54:50;;;;;;;5.45;1.60;;;;;;;21.67;62.57;94603.06;5037546;28;20082;-91
2023/08/09 08:57:15;;;;;;;5.40;1.70;;;;;;;22.14;64.46;94612.53;5037411;28;20101;-90
2023/08/09 08:59:41;;;;;;;4.63;1.70;;;;;;;22.89;59.46;94604.34;5037200;28;20048;-89
2023/08/09 09:02:25;;;;;;;4.07;1.30;;;;;;;22.66;61.49;94594.19;5037393;28;20041;-90
2023/08/09 09:04:50;;;;;;;3.67;1.33;;;;;;;23.04;59.69;94596.72;5020830;28;20040;-90
2023/08/09 09:12:50;;;;;;;6.90;1.58;;;;;;;24.09;54.73;94604.66;5036425;28;20361;-90
2023/08/09 09:15:35;;;;;;;9.57;1.95;;;;;;;23.63;54.27;94605.09;5036905;28;20029;-92
2023/08/09 09:18:22;;;;;;;5.75;1.52;;;;;;;23.92;57.89;94595.84;5038388;28;20037;-91
2023/08/09 09:20:49;;;;;;;3.97;1.40;;;;;;;23.52;53.77;94599.47;5037673;28;20033;-90
2023/08/09 09:26:18;;;;;;;3.70;1.63;;;;;;;23.81;55.73;94592.91;5055228;28;20121;-91
2023/08/09 09:28:45;;;;;;;3.97;1.38;;;;;;;23.93;71.91;94588.59;5065524;28;20024;-92
2023/08/09 09:31:13;;;;;;;4.20;1.52;;;;;;;23.97;56.56;94584.88;5056713;28;20036;-91
2023/08/09 09:33:39;;;;;;;2.78;1.20;;;;;;;23.98;55.88;94589.09;5062722;28;20033;-89
2023/08/09 09:36:10;;;;;;;3.38;1.55;;;;;;;24.42;53.74;94584.69;5074622;28;20028;-88
2023/08/09 09:38:36;;;;;;;4.15;1.52;;;;;;;24.52;50.65;94583.38;5076926;28;20021;-91
2023/08/09 09:41:02;;;;;;;2.60;1.30;;;;;;;24.88;49.49;94584.09;5076445;28;20395;-91
2023/08/09 09:43:50;;;;;;;6.22;1.58;;;;;;;24.80;53.22;94583.19;5076406;28;20055;-91
2023/08/09 09:46:38;;;;;;;2.72;1.40;;;;;;;24.81;49.12;94578.59;5077441;28;20028;-92
2023/08/09 09:49:22;;;;;;;3.05;1.60;;;;;;;24.74;49.92;94581.13;5076162;28;20376;-89
2023/08/09 09:51:49;;;;;;;5.00;1.60;;;;;;;24.81;51.52;94574.03;5076679;28;20024;-92
2023/08/09 09:57:17;;;;;;;2.72;1.52;;;;;;;24.90;51.19;94575.72;5076278;28;20043;-92
2023/08/09 09:59:43;;;;;;;2.78;1.48;;;;;;;24.64;49.52;94575.19;5075975;28;20040;-91
2023/08/09 10:02:11;;;;;;;5.45;1.65;;;;;;;24.59;47.84;94575.50;5066134;28;20033;-91
2023/08/09 10:04:37;;;;;;;5.30;1.50;;;;;;;24.20;48.07;94573.56;5057424;28;20055;-91
2023/08/09 10:07:03;;;;;;;4.22;1.52;;;;;;;24.40;48.89;94576.25;5039504;28;20028;-91
2023/08/09 10:09:29;;;;;;;10.23;1.85;;;;;;;24.34;50.33;94569.63;5055898;28;20037;-91
2023/08/09 10:11:58;;;;;;;3.90;1.60;;;;;;;23.98;52.57;94561.56;5039336;28;20071;-91
2023/08/09 10:14:26;;;;;;;2.47;1.35;;;;;;;24.50;49.16;94564.19;5056082;28;20037;-92
2023/08/09 10:17:06;;;;;;;3.45;1.67;;;;;;;24.59;50.24;94570.13;5043635;28;20091;-92
2023/08/09 10:19:47;;;;;;;4.40;1.60;;;;;;;24.74;51.19;94559.69;5033155;28;20091;-90
2023/08/09 10:22:18;;;;;;;2.78;1.30;;;;;;;24.83;49.28;94568.34;5037076;28;20469;-92
2023/08/09 10:24:44;;;;;;;11.45;1.58;;;;;;;24.84;46.96;94561.84;5036007;28;20423;-93
2023/08/09 10:27:28;;;;;;;2.05;1.35;;;;;;;24.26;45.96;94558.00;5036007;28;20043;-90
2023/08/09 10:29:57;;;;;;;5.60;1.42;;;;;;;24.54;47.78;94560.47;5037099;28;20076;-91
2023/08/09 10:32:49;;;;;;;4.57;1.63;;;;;;;24.73;49.78;94552.78;5035952;28;20033;-90
2023/08/09 10:35:20;;;;;;;3.42;1.40;;;;;;;24.47;45.84;94555.00;5035637;28;20030;-89
2023/08/09 10:40:52;;;;;;;5.72;1.30;;;;;;;24.22;46.48;94557.91;5036612;28;20033;-89
2023/08/09 10:43:23;;;;;;;4.75;1.50;;;;;;;24.13;48.51;94565.34;5036077;28;20033;-88
2023/08/09 10:45:49;;;;;;;4.55;1.75;;;;;;;24.27;46.75;94559.53;5035839;28;20028;-90
2023/08/09 10:48:25;;;;;;;3.47;1.67;;;;;;;24.46;43.34;94555.31;5035760;28;20029;-88
2023/08/09 10:57:35;;;;;;;;;;;;;;;;;;;;;
2023/08/09 11:03:23;;;;;;;9.68;1.77;;;;;;;24.71;48.67;94537.84;5044559;28;20072;-91
2023/08/09 11:08:51;;;;;;;4.88;1.40;;;;;;;25.28;50.08;94539.22;5036206;28;20035;-92
2023/08/09 11:11:17;;;;;;;5.07;1.60;;;;;;;25.54;46.24;94533.19;5049683;28;20041;-90
2023/08/09 11:16:30;;;;;;;3.42;1.30;;;;;;;25.79;47.35;94527.41;5055259;28;20040;-92
2023/08/09 11:19:15;;;;;;;2.25;1.40;;;;;;;25.66;46.23;94526.06;5055945;28;20025;-91
2023/08/09 11:21:59;;;;;;;3.50;1.40;;;;;;;24.91;47.47;94529.81;5055273;28;20334;-92
2023/08/09 11:24:25;;;;;;;3.97;1.58;;;;;;;25.36;43.46;94516.00;5055629;28;20031;-92
2023/08/09 11:26:58;;;;;;;5.80;1.70;;;;;;;25.63;45.73;94519.53;5055536;28;20020;-92
2023/08/09 11:34:54;;;;;;;6.85;1.70;;;;;;;26.20;44.51;94521.47;5055928;28;20087;-91
2023/08/09 11:37:19;;;;;;;5.53;1.75;;;;;;;26.05;42.78;94515.13;5052643;28;20029;-91
2023/08/09 11:39:45;;;;;;;9.18;1.48;;;;;;;25.72;45.11;94516.59;5059285;28;20029;-90
2023/08/09 11:42:10;;;;;;;3.80;1.50;;;;;;;25.79;45.03;94516.66;5058516;28;20435;-90
2023/08/09 11:44:38;;;;;;;6.78;1.63;;;;;;;26.22;42.93;94513.03;5059951;28;20020;-89
2023/08/09 11:47:04;;;;;;;5.47;1.48;;;;;;;25.87;48.47;94508.75;5058653;28;20671;-90
2023/08/09 11:49:31;;;;;;;2.47;1.67;;;;;;;25.17;50.28;94508.78;5058133;28;20025;-91
2023/08/09 11:52:16;;;;;;;8.13;1.45;;;;;;;24.97;49.28;94515.00;5059860;28;20338;-91
2023/08/09 11:54:42;;;;;;;6.32;1.23;;;;;;;25.08;52.18;94509.81;5059622;28;20032;-91
2023/08/09 11:57:22;;;;;;;4.78;1.90;;;;;;;25.01;55.09;94514.28;5058154;28;20033;-91
2023/08/09 11:59:47;;;;;;;10.20;1.50;;;;;;;25.16;53.85;94510.72;5058394;28;20339;-91
2023/08/09 12:02:13;;;;;;;6.57;1.40;;;;;;;25.20;52.44;94508.84;5058588;28;20059;-92
2023/08/09 12:04:39;;;;;;;8.02;1.60;;;;;;;25.27;50.14;94502.84;5058632;28;20035;-93
2023/08/09 12:07:09;;;;;;;3.70;1.50;;;;;;;25.12;49.27;94501.84;5058299;28;20155;-92
2023/08/09 12:09:42;;;;;;;5.22;1.90;;;;;;;25.55;54.70;94499.06;5058048;28;20036;-92
2023/08/09 12:15:02;;;;;;;3.97;1.63;;;;;;;25.59;51.95;94507.94;5058256;28;20037;-92
2023/08/09 12:17:31;;;;;;;5.10;1.95;;;;;;;24.85;52.49;94512.47;5058300;28;20029;-93
2023/08/09 12:20:02;;;;;;;13.93;1.52;;;;;;;24.78;51.48;94510.44;5057596;28;20029;-92
2023/08/09 12:22:28;;;;;;;3.97;1.52;;;;;;;24.88;50.66;94506.41;5057438;28;20051;-91
2023/08/09 12:25:13;;;;;;;5.68;1.80;;;;;;;25.23;52.38;94505.44;5058259;28;20032;-91
2023/08/09 12:27:41;;;;;;;4.93;1.42;;;;;;;24.66;54.46;94510.56;5058949;28;20027;-91
2023/08/09 12:30:10;;;;;;;3.80;1.75;;;;;;;24.62;54.13;94515.09;5057609;28;20118;-91
2023/08/09 12:32:36;;;;;;;5.68;1.60;;;;;;;24.56;51.76;94520.72;5058129;28;20033;-90
2023/08/09 12:35:04;;;;;;;4.68;1.33;;;;;;;24.74;51.90;94516.84;5057665;28;20029;-91
2023/08/09 12:37:37;;;;;;;6.32;1.50;;;;;;;24.79;50.13;94512.00;5057936;28;20029;-92
2023/08/09 12:40:05;;;;;;;5.83;1.80;;;;;;;24.87;51.82;94512.91;5040884;28;20056;-90
2023/08/09 12:42:31;;;;;;;7.03;1.60;;;;;;;25.33;51.16;94519.41;5057676;28;20275;-89
2023/08/09 12:44:56;;;;;;;3.38;1.65;;;;;;;25.46;47.30;94504.66;5058324;28;20033;-92
2023/08/09 12:47:21;;;;;;;5.55;1.90;;;;;;;25.19;53.06;94504.63;5056839;28;20040;-91
2023/08/09 12:49:47;;;;;;;7.18;1.90;;;;;;;25.60;52.36;94509.50;5056950;28;20037;-90
2023/08/09 12:52:12;;;;;;;5.85;1.42;;;;;;;26.37;46.13;94509.41;5058783;28;20033;-92
2023/08/09 12:54:38;;;;;;;2.03;1.27;;;;;;;26.18;47.94;94501.50;5057319;28;20406;-91
2023/08/09 12:57:07;;;;;;;6.15;1.60;;;;;;;25.68;52.86;94497.00;5057168;28;20033;-92
2023/08/09 13:02:36;;;;;;;3.25;1.40;;;;;;;26.42;47.74;94496.81;5051512;28;20071;-90
2023/08/09 13:07:45;;;;;;;3.55;1.27;;;;;;;26.80;42.80;94494.88;5037564;28;20079;-91
2023/08/09 13:10:10;;;;;;;6.72;1.63;;;;;;;27.17;42.15;94504.09;5039882;28;20442;-92
2023/08/09 13:12:43;;;;;;;3.80;1.35;;;;;;;26.52;42.32;94498.81;5057233;28;20039;-93
2023/08/09 13:15:32;;;;;;;4.05;1.42;;;;;;;26.28;44.56;94495.50;5057455;28;20116;-91
2023/08/09 13:17:58;;;;;;;6.95;1.55;;;;;;;26.22;41.92;94492.34;5073396;28;20095;-90
2023/08/09 13:20:42;;;;;;;5.60;1.85;;;;;;;26.37;45.14;94495.22;5040016;28;20399;-92
2023/08/09 13:23:13;;;;;;;4.55;1.60;;;;;;;26.36;44.46;94488.28;5058173;28;20037;-92
2023/08/09 13:25:39;;;;;;;3.60;1.52;;;;;;;26.84;45.75;94489.56;5040821;28;20128;-91
2023/08/09 13:28:05;;;;;;;8.27;1.33;;;;;;;27.08;43.16;94496.31;5058129;28;20044;-93
2023/08/09 13:33:15;;;;;;;7.82;1.65;;;;;;;27.27;43.72;94499.97;5037692;28;20477;-92
2023/08/09 13:35:59;;;;;;;2.00;1.35;;;;;;;27.79;41.30;94497.28;5020443;28;20033;-93